sensor_id;sensor_type;location;lat;lon;timestamp;P1;durP1;ratioP1;P2;durP2;ratioP2
17151;SDS011;8691;50.828;4.700;2022-12-20T00:01:30;2.67;;;1.87;;
17151;SDS011;8691;50.828;4.700;2022-12-20T00:03:56;2.17;;;1.97;;
17151;SDS011;8691;50.828;4.700;2022-12-20T00:06:23;2.83;;;2.10;;
17151;SDS011;8691;50.828;4.700;2022-12-20T00:08:53;2.97;;;1.77;;
17151;SDS011;8691;50.828;4.700;2022-12-20T00:11:21;2.13;;;1.90;;
17151;SDS011;8691;50.828;4.700;2022-12-20T00:13:48;3.83;;;2.03;;
17151;SDS011;8691;50.828;4.700;2022-12-20T00:16:16;2.87;;;1.80;;
17151;SDS011;8691;50.828;4.700;2022-12-20T00:18:41;2.47;;;1.87;;
17151;SDS011;8691;50.828;4.700;2022-12-20T00:21:10;3.63;;;2.07;;
17151;SDS011;8691;50.828;4.700;2022-12-20T00:23:35;3.23;;;2.20;;
17151;SDS011;8691;50.828;4.700;2022-12-20T00:26:03;2.20;;;2.00;;
17151;SDS011;8691;50.828;4.700;2022-12-20T00:28:28;2.13;;;1.90;;
17151;SDS011;8691;50.828;4.700;2022-12-20T00:30:55;1.73;;;1.63;;
17151;SDS011;8691;50.828;4.700;2022-12-20T00:33:22;1.90;;;1.70;;
17151;SDS011;8691;50.828;4.700;2022-12-20T00:35:48;2.07;;;1.80;;
17151;SDS011;8691;50.828;4.700;2022-12-20T00:38:15;2.43;;;2.07;;
17151;SDS011;8691;50.828;4.700;2022-12-20T00:40:41;2.97;;;1.90;;
17151;SDS011;8691;50.828;4.700;2022-12-20T00:43:08;3.57;;;2.00;;
17151;SDS011;8691;50.828;4.700;2022-12-20T00:45:35;2.70;;;2.10;;
17151;SDS011;8691;50.828;4.700;2022-12-20T00:48:01;3.67;;;1.80;;
17151;SDS011;8691;50.828;4.700;2022-12-20T00:50:29;2.30;;;1.80;;
17151;SDS011;8691;50.828;4.700;2022-12-20T00:52:55;2.00;;;1.70;;
17151;SDS011;8691;50.828;4.700;2022-12-20T00:55:23;3.67;;;2.07;;
17151;SDS011;8691;50.828;4.700;2022-12-20T00:57:49;3.00;;;2.20;;
17151;SDS011;8691;50.828;4.700;2022-12-20T01:00:17;4.07;;;1.80;;
17151;SDS011;8691;50.828;4.700;2022-12-20T01:02:43;1.90;;;1.80;;
17151;SDS011;8691;50.828;4.700;2022-12-20T01:05:10;2.63;;;1.83;;
17151;SDS011;8691;50.828;4.700;2022-12-20T01:07:37;3.47;;;1.93;;
17151;SDS011;8691;50.828;4.700;2022-12-20T01:10:03;2.60;;;2.03;;
17151;SDS011;8691;50.828;4.700;2022-12-20T01:12:30;3.03;;;1.97;;
17151;SDS011;8691;50.828;4.700;2022-12-20T01:14:56;2.30;;;1.90;;
17151;SDS011;8691;50.828;4.700;2022-12-20T01:17:23;2.20;;;1.90;;
17151;SDS011;8691;50.828;4.700;2022-12-20T01:19:50;2.63;;;2.30;;
17151;SDS011;8691;50.828;4.700;2022-12-20T01:22:16;3.00;;;2.10;;
17151;SDS011;8691;50.828;4.700;2022-12-20T01:24:43;2.13;;;1.97;;
17151;SDS011;8691;50.828;4.700;2022-12-20T01:27:09;3.47;;;2.17;;
17151;SDS011;8691;50.828;4.700;2022-12-20T01:29:37;3.63;;;2.30;;
17151;SDS011;8691;50.828;4.700;2022-12-20T01:32:03;3.23;;;2.30;;
17151;SDS011;8691;50.828;4.700;2022-12-20T01:34:31;3.50;;;2.13;;
17151;SDS011;8691;50.828;4.700;2022-12-20T01:36:57;5.00;;;2.27;;
17151;SDS011;8691;50.828;4.700;2022-12-20T01:39:25;3.40;;;2.40;;
17151;SDS011;8691;50.828;4.700;2022-12-20T01:41:51;2.63;;;2.03;;
17151;SDS011;8691;50.828;4.700;2022-12-20T01:46:46;2.93;;;2.20;;
17151;SDS011;8691;50.828;4.700;2022-12-20T01:49:27;4.03;;;2.00;;
17151;SDS011;8691;50.828;4.700;2022-12-20T01:52:05;2.10;;;1.90;;
17151;SDS011;8691;50.828;4.700;2022-12-20T01:54:34;3.27;;;2.10;;
17151;SDS011;8691;50.828;4.700;2022-12-20T01:57:01;4.63;;;2.20;;
17151;SDS011;8691;50.828;4.700;2022-12-20T01:59:26;3.90;;;2.20;;
17151;SDS011;8691;50.828;4.700;2022-12-20T02:01:53;3.17;;;2.13;;
17151;SDS011;8691;50.828;4.700;2022-12-20T02:04:19;7.77;;;2.43;;
17151;SDS011;8691;50.828;4.700;2022-12-20T02:06:46;4.33;;;2.07;;
17151;SDS011;8691;50.828;4.700;2022-12-20T02:09:13;2.17;;;1.60;;
17151;SDS011;8691;50.828;4.700;2022-12-20T02:11:48;2.67;;;2.07;;
17151;SDS011;8691;50.828;4.700;2022-12-20T02:14:33;2.90;;;2.33;;
17151;SDS011;8691;50.828;4.700;2022-12-20T02:19:55;3.88;;;2.30;;
17151;SDS011;8691;50.828;4.700;2022-12-20T02:27:42;3.80;;;2.20;;
17151;SDS011;8691;50.828;4.700;2022-12-20T02:30:11;3.40;;;2.00;;
17151;SDS011;8691;50.828;4.700;2022-12-20T02:32:41;1.87;;;1.73;;
17151;SDS011;8691;50.828;4.700;2022-12-20T02:35:06;2.37;;;1.80;;
17151;SDS011;8691;50.828;4.700;2022-12-20T02:37:32;2.50;;;1.80;;
17151;SDS011;8691;50.828;4.700;2022-12-20T02:39:59;2.20;;;2.00;;
17151;SDS011;8691;50.828;4.700;2022-12-20T02:42:26;3.37;;;2.00;;
17151;SDS011;8691;50.828;4.700;2022-12-20T02:44:57;2.07;;;1.80;;
17151;SDS011;8691;50.828;4.700;2022-12-20T02:47:47;1.70;;;1.60;;
17151;SDS011;8691;50.828;4.700;2022-12-20T02:50:13;4.47;;;1.80;;
17151;SDS011;8691;50.828;4.700;2022-12-20T02:52:39;2.97;;;1.80;;
17151;SDS011;8691;50.828;4.700;2022-12-20T02:55:06;3.03;;;2.27;;
17151;SDS011;8691;50.828;4.700;2022-12-20T02:57:37;1.93;;;1.80;;
17151;SDS011;8691;50.828;4.700;2022-12-20T03:00:12;3.13;;;2.00;;
17151;SDS011;8691;50.828;4.700;2022-12-20T03:02:38;3.43;;;2.00;;
17151;SDS011;8691;50.828;4.700;2022-12-20T03:05:24;2.47;;;1.70;;
17151;SDS011;8691;50.828;4.700;2022-12-20T03:07:50;2.57;;;2.20;;
17151;SDS011;8691;50.828;4.700;2022-12-20T03:10:16;2.50;;;2.20;;
17151;SDS011;8691;50.828;4.700;2022-12-20T03:12:43;2.23;;;2.03;;
17151;SDS011;8691;50.828;4.700;2022-12-20T03:15:10;2.73;;;2.10;;
17151;SDS011;8691;50.828;4.700;2022-12-20T03:17:36;2.75;;;2.08;;
17151;SDS011;8691;50.828;4.700;2022-12-20T03:20:04;2.93;;;2.23;;
17151;SDS011;8691;50.828;4.700;2022-12-20T03:22:30;3.28;;;2.05;;
17151;SDS011;8691;50.828;4.700;2022-12-20T03:24:57;3.00;;;2.10;;
17151;SDS011;8691;50.828;4.700;2022-12-20T03:27:24;3.03;;;2.23;;
17151;SDS011;8691;50.828;4.700;2022-12-20T03:29:50;1.63;;;1.53;;
17151;SDS011;8691;50.828;4.700;2022-12-20T03:32:17;3.90;;;1.87;;
17151;SDS011;8691;50.828;4.700;2022-12-20T03:34:44;4.10;;;2.00;;
17151;SDS011;8691;50.828;4.700;2022-12-20T03:37:11;3.55;;;2.28;;
17151;SDS011;8691;50.828;4.700;2022-12-20T03:39:39;3.47;;;2.30;;
17151;SDS011;8691;50.828;4.700;2022-12-20T03:42:05;3.43;;;2.17;;
17151;SDS011;8691;50.828;4.700;2022-12-20T03:44:33;3.70;;;1.77;;
17151;SDS011;8691;50.828;4.700;2022-12-20T03:46:59;3.40;;;1.70;;
17151;SDS011;8691;50.828;4.700;2022-12-20T03:49:27;2.50;;;1.63;;
17151;SDS011;8691;50.828;4.700;2022-12-20T03:51:53;4.33;;;2.10;;
17151;SDS011;8691;50.828;4.700;2022-12-20T03:54:21;2.47;;;1.87;;
17151;SDS011;8691;50.828;4.700;2022-12-20T03:56:47;3.00;;;1.87;;
17151;SDS011;8691;50.828;4.700;2022-12-20T03:59:15;3.62;;;2.20;;
17151;SDS011;8691;50.828;4.700;2022-12-20T04:01:41;2.20;;;2.00;;
17151;SDS011;8691;50.828;4.700;2022-12-20T04:04:09;2.90;;;2.10;;
17151;SDS011;8691;50.828;4.700;2022-12-20T04:06:34;2.03;;;1.90;;
17151;SDS011;8691;50.828;4.700;2022-12-20T04:09:01;4.83;;;2.03;;
17151;SDS011;8691;50.828;4.700;2022-12-20T04:11:27;2.63;;;2.30;;
17151;SDS011;8691;50.828;4.700;2022-12-20T04:13:54;2.60;;;1.80;;
17151;SDS011;8691;50.828;4.700;2022-12-20T04:16:23;2.23;;;1.80;;
17151;SDS011;8691;50.828;4.700;2022-12-20T04:18:48;3.67;;;2.10;;
17151;SDS011;8691;50.828;4.700;2022-12-20T04:21:18;2.80;;;1.80;;
17151;SDS011;8691;50.828;4.700;2022-12-20T04:23:42;2.40;;;1.93;;
17151;SDS011;8691;50.828;4.700;2022-12-20T04:26:09;2.90;;;2.07;;
17151;SDS011;8691;50.828;4.700;2022-12-20T04:28:36;2.80;;;1.70;;
17151;SDS011;8691;50.828;4.700;2022-12-20T04:31:04;3.80;;;1.93;;
17151;SDS011;8691;50.828;4.700;2022-12-20T04:33:30;3.77;;;2.00;;
17151;SDS011;8691;50.828;4.700;2022-12-20T04:35:58;1.90;;;1.50;;
17151;SDS011;8691;50.828;4.700;2022-12-20T04:38:24;2.33;;;1.90;;
17151;SDS011;8691;50.828;4.700;2022-12-20T04:40:52;3.43;;;2.07;;
17151;SDS011;8691;50.828;4.700;2022-12-20T04:43:18;2.50;;;1.80;;
17151;SDS011;8691;50.828;4.700;2022-12-20T04:45:47;1.60;;;1.50;;
17151;SDS011;8691;50.828;4.700;2022-12-20T04:48:12;1.70;;;1.60;;
17151;SDS011;8691;50.828;4.700;2022-12-20T04:50:40;1.60;;;1.50;;
17151;SDS011;8691;50.828;4.700;2022-12-20T04:53:07;2.20;;;1.70;;
17151;SDS011;8691;50.828;4.700;2022-12-20T04:55:51;2.37;;;1.57;;
17151;SDS011;8691;50.828;4.700;2022-12-20T04:58:18;3.87;;;1.80;;
17151;SDS011;8691;50.828;4.700;2022-12-20T05:00:45;3.80;;;1.60;;
17151;SDS011;8691;50.828;4.700;2022-12-20T05:03:11;2.03;;;1.67;;
17151;SDS011;8691;50.828;4.700;2022-12-20T05:05:38;2.20;;;1.60;;
17151;SDS011;8691;50.828;4.700;2022-12-20T05:08:05;1.77;;;1.40;;
17151;SDS011;8691;50.828;4.700;2022-12-20T05:10:31;2.03;;;1.60;;
17151;SDS011;8691;50.828;4.700;2022-12-20T05:12:59;3.33;;;1.60;;
17151;SDS011;8691;50.828;4.700;2022-12-20T05:15:25;2.07;;;1.47;;
17151;SDS011;8691;50.828;4.700;2022-12-20T05:17:53;4.20;;;1.87;;
17151;SDS011;8691;50.828;4.700;2022-12-20T05:20:19;3.03;;;1.50;;
17151;SDS011;8691;50.828;4.700;2022-12-20T05:22:47;2.80;;;1.80;;
17151;SDS011;8691;50.828;4.700;2022-12-20T05:25:31;4.13;;;1.63;;
17151;SDS011;8691;50.828;4.700;2022-12-20T05:28:16;6.03;;;1.63;;
17151;SDS011;8691;50.828;4.700;2022-12-20T05:30:42;3.67;;;1.60;;
17151;SDS011;8691;50.828;4.700;2022-12-20T05:33:09;2.40;;;1.60;;
17151;SDS011;8691;50.828;4.700;2022-12-20T05:35:36;3.33;;;1.75;;
17151;SDS011;8691;50.828;4.700;2022-12-20T05:38:03;1.97;;;1.63;;
17151;SDS011;8691;50.828;4.700;2022-12-20T05:40:30;2.67;;;1.40;;
17151;SDS011;8691;50.828;4.700;2022-12-20T05:42:57;2.60;;;1.47;;
17151;SDS011;8691;50.828;4.700;2022-12-20T05:45:24;2.93;;;1.43;;
17151;SDS011;8691;50.828;4.700;2022-12-20T05:47:51;2.07;;;1.50;;
17151;SDS011;8691;50.828;4.700;2022-12-20T05:50:18;2.00;;;1.80;;
17151;SDS011;8691;50.828;4.700;2022-12-20T05:52:45;3.27;;;1.70;;
17151;SDS011;8691;50.828;4.700;2022-12-20T05:55:12;1.63;;;1.37;;
17151;SDS011;8691;50.828;4.700;2022-12-20T05:57:38;2.90;;;1.40;;
17151;SDS011;8691;50.828;4.700;2022-12-20T06:00:05;1.93;;;1.63;;
17151;SDS011;8691;50.828;4.700;2022-12-20T06:02:32;3.23;;;1.87;;
17151;SDS011;8691;50.828;4.700;2022-12-20T06:04:59;2.53;;;1.50;;
17151;SDS011;8691;50.828;4.700;2022-12-20T06:07:25;3.07;;;1.67;;
17151;SDS011;8691;50.828;4.700;2022-12-20T06:09:52;1.97;;;1.60;;
17151;SDS011;8691;50.828;4.700;2022-12-20T06:12:19;2.73;;;1.70;;
17151;SDS011;8691;50.828;4.700;2022-12-20T06:14:46;2.20;;;1.70;;
17151;SDS011;8691;50.828;4.700;2022-12-20T06:17:16;3.58;;;1.60;;
17151;SDS011;8691;50.828;4.700;2022-12-20T06:19:39;3.17;;;1.50;;
17151;SDS011;8691;50.828;4.700;2022-12-20T06:22:09;1.97;;;1.13;;
17151;SDS011;8691;50.828;4.700;2022-12-20T06:24:35;1.53;;;1.43;;
17151;SDS011;8691;50.828;4.700;2022-12-20T06:27:02;1.93;;;1.60;;
17151;SDS011;8691;50.828;4.700;2022-12-20T06:29:28;3.13;;;1.40;;
17151;SDS011;8691;50.828;4.700;2022-12-20T06:31:55;2.97;;;1.60;;
17151;SDS011;8691;50.828;4.700;2022-12-20T06:34:22;3.47;;;1.80;;
17151;SDS011;8691;50.828;4.700;2022-12-20T06:36:49;2.43;;;1.80;;
17151;SDS011;8691;50.828;4.700;2022-12-20T06:39:16;2.45;;;1.40;;
17151;SDS011;8691;50.828;4.700;2022-12-20T06:41:43;3.20;;;1.60;;
17151;SDS011;8691;50.828;4.700;2022-12-20T06:44:09;2.77;;;1.43;;
17151;SDS011;8691;50.828;4.700;2022-12-20T06:46:36;2.85;;;1.40;;
17151;SDS011;8691;50.828;4.700;2022-12-20T06:49:03;2.43;;;1.40;;
17151;SDS011;8691;50.828;4.700;2022-12-20T06:51:29;3.50;;;1.20;;
17151;SDS011;8691;50.828;4.700;2022-12-20T06:53:56;1.93;;;1.40;;
17151;SDS011;8691;50.828;4.700;2022-12-20T06:56:23;2.67;;;1.40;;
17151;SDS011;8691;50.828;4.700;2022-12-20T06:58:50;1.53;;;1.17;;
17151;SDS011;8691;50.828;4.700;2022-12-20T07:01:17;1.93;;;1.40;;
17151;SDS011;8691;50.828;4.700;2022-12-20T07:03:44;4.10;;;1.47;;
17151;SDS011;8691;50.828;4.700;2022-12-20T07:06:11;2.77;;;1.47;;
17151;SDS011;8691;50.828;4.700;2022-12-20T07:08:38;1.37;;;1.23;;
17151;SDS011;8691;50.828;4.700;2022-12-20T07:11:06;3.23;;;1.50;;
17151;SDS011;8691;50.828;4.700;2022-12-20T07:13:32;2.37;;;1.60;;
17151;SDS011;8691;50.828;4.700;2022-12-20T07:16:00;3.17;;;1.60;;
17151;SDS011;8691;50.828;4.700;2022-12-20T07:18:26;2.23;;;1.43;;
17151;SDS011;8691;50.828;4.700;2022-12-20T07:20:53;1.40;;;1.30;;
17151;SDS011;8691;50.828;4.700;2022-12-20T07:23:20;2.77;;;1.33;;
17151;SDS011;8691;50.828;4.700;2022-12-20T07:25:56;3.07;;;1.40;;
17151;SDS011;8691;50.828;4.700;2022-12-20T07:28:23;2.67;;;1.80;;
17151;SDS011;8691;50.828;4.700;2022-12-20T07:30:49;1.60;;;1.33;;
17151;SDS011;8691;50.828;4.700;2022-12-20T07:33:15;2.83;;;1.57;;
17151;SDS011;8691;50.828;4.700;2022-12-20T07:35:42;5.00;;;1.70;;
17151;SDS011;8691;50.828;4.700;2022-12-20T07:38:08;2.63;;;1.60;;
17151;SDS011;8691;50.828;4.700;2022-12-20T07:40:38;4.43;;;1.50;;
17151;SDS011;8691;50.828;4.700;2022-12-20T07:43:02;4.77;;;1.80;;
17151;SDS011;8691;50.828;4.700;2022-12-20T07:45:29;4.00;;;1.80;;
17151;SDS011;8691;50.828;4.700;2022-12-20T07:47:56;2.20;;;1.17;;
17151;SDS011;8691;50.828;4.700;2022-12-20T07:50:22;4.20;;;1.50;;
17151;SDS011;8691;50.828;4.700;2022-12-20T07:52:49;2.80;;;1.60;;
17151;SDS011;8691;50.828;4.700;2022-12-20T07:55:16;4.00;;;1.73;;
17151;SDS011;8691;50.828;4.700;2022-12-20T07:57:44;3.23;;;1.60;;
17151;SDS011;8691;50.828;4.700;2022-12-20T08:00:09;2.50;;;1.83;;
17151;SDS011;8691;50.828;4.700;2022-12-20T08:02:37;2.20;;;1.73;;
17151;SDS011;8691;50.828;4.700;2022-12-20T08:05:04;4.23;;;1.80;;
17151;SDS011;8691;50.828;4.700;2022-12-20T08:07:30;5.20;;;1.67;;
17151;SDS011;8691;50.828;4.700;2022-12-20T08:09:57;3.03;;;1.60;;
17151;SDS011;8691;50.828;4.700;2022-12-20T08:12:24;3.73;;;1.70;;
17151;SDS011;8691;50.828;4.700;2022-12-20T08:14:51;3.97;;;2.00;;
17151;SDS011;8691;50.828;4.700;2022-12-20T08:17:18;2.93;;;1.73;;
17151;SDS011;8691;50.828;4.700;2022-12-20T08:19:45;2.83;;;1.83;;
17151;SDS011;8691;50.828;4.700;2022-12-20T08:22:12;3.00;;;1.80;;
17151;SDS011;8691;50.828;4.700;2022-12-20T08:24:39;9.33;;;5.13;;
17151;SDS011;8691;50.828;4.700;2022-12-20T08:27:06;5.00;;;2.17;;
17151;SDS011;8691;50.828;4.700;2022-12-20T08:29:33;4.40;;;2.47;;
17151;SDS011;8691;50.828;4.700;2022-12-20T08:32:00;4.27;;;1.90;;
17151;SDS011;8691;50.828;4.700;2022-12-20T08:34:27;3.00;;;1.80;;
17151;SDS011;8691;50.828;4.700;2022-12-20T08:36:54;2.20;;;1.40;;
17151;SDS011;8691;50.828;4.700;2022-12-20T08:39:21;2.00;;;1.50;;
17151;SDS011;8691;50.828;4.700;2022-12-20T08:41:48;3.00;;;1.77;;
17151;SDS011;8691;50.828;4.700;2022-12-20T08:44:15;2.10;;;1.50;;
17151;SDS011;8691;50.828;4.700;2022-12-20T08:46:42;2.47;;;1.47;;
17151;SDS011;8691;50.828;4.700;2022-12-20T08:49:09;2.73;;;1.93;;
17151;SDS011;8691;50.828;4.700;2022-12-20T08:51:36;2.07;;;1.70;;
17151;SDS011;8691;50.828;4.700;2022-12-20T08:54:03;2.30;;;1.50;;
17151;SDS011;8691;50.828;4.700;2022-12-20T08:56:30;4.20;;;2.17;;
17151;SDS011;8691;50.828;4.700;2022-12-20T08:58:56;2.27;;;1.70;;
17151;SDS011;8691;50.828;4.700;2022-12-20T09:01:23;2.00;;;1.50;;
17151;SDS011;8691;50.828;4.700;2022-12-20T09:03:50;2.90;;;2.00;;
17151;SDS011;8691;50.828;4.700;2022-12-20T09:06:18;4.63;;;1.80;;
17151;SDS011;8691;50.828;4.700;2022-12-20T09:08:44;2.40;;;1.63;;
17151;SDS011;8691;50.828;4.700;2022-12-20T09:11:21;2.27;;;1.73;;
17151;SDS011;8691;50.828;4.700;2022-12-20T09:13:47;2.00;;;1.60;;
17151;SDS011;8691;50.828;4.700;2022-12-20T09:16:14;3.43;;;1.77;;
17151;SDS011;8691;50.828;4.700;2022-12-20T09:18:41;2.40;;;1.43;;
17151;SDS011;8691;50.828;4.700;2022-12-20T09:21:07;4.23;;;1.60;;
17151;SDS011;8691;50.828;4.700;2022-12-20T09:23:35;2.97;;;1.70;;
17151;SDS011;8691;50.828;4.700;2022-12-20T09:26:02;2.50;;;1.53;;
17151;SDS011;8691;50.828;4.700;2022-12-20T09:28:29;1.93;;;1.67;;
17151;SDS011;8691;50.828;4.700;2022-12-20T09:30:58;4.77;;;1.73;;
17151;SDS011;8691;50.828;4.700;2022-12-20T09:33:25;2.60;;;1.60;;
17151;SDS011;8691;50.828;4.700;2022-12-20T09:35:51;2.90;;;2.33;;
17151;SDS011;8691;50.828;4.700;2022-12-20T09:38:18;1.93;;;1.80;;
17151;SDS011;8691;50.828;4.700;2022-12-20T09:40:46;3.30;;;1.70;;
17151;SDS011;8691;50.828;4.700;2022-12-20T09:43:11;2.93;;;2.07;;
17151;SDS011;8691;50.828;4.700;2022-12-20T09:45:38;3.47;;;2.20;;
17151;SDS011;8691;50.828;4.700;2022-12-20T09:48:05;3.30;;;2.00;;
17151;SDS011;8691;50.828;4.700;2022-12-20T09:50:36;3.35;;;2.03;;
17151;SDS011;8691;50.828;4.700;2022-12-20T09:56:16;4.60;;;1.90;;
17151;SDS011;8691;50.828;4.700;2022-12-20T10:01:23;2.53;;;1.70;;
17151;SDS011;8691;50.828;4.700;2022-12-20T10:03:49;3.63;;;1.93;;
17151;SDS011;8691;50.828;4.700;2022-12-20T10:07:01;4.10;;;1.87;;
17151;SDS011;8691;50.828;4.700;2022-12-20T10:09:02;4.33;;;2.00;;
17151;SDS011;8691;50.828;4.700;2022-12-20T10:11:41;3.30;;;1.80;;
17151;SDS011;8691;50.828;4.700;2022-12-20T10:14:21;3.55;;;2.00;;
17151;SDS011;8691;50.828;4.700;2022-12-20T10:16:56;3.55;;;2.15;;
17151;SDS011;8691;50.828;4.700;2022-12-20T10:22:02;3.53;;;1.60;;
17151;SDS011;8691;50.828;4.700;2022-12-20T10:24:49;3.20;;;1.90;;
17151;SDS011;8691;50.828;4.700;2022-12-20T10:27:13;3.47;;;1.83;;
17151;SDS011;8691;50.828;4.700;2022-12-20T10:29:41;3.93;;;1.90;;
17151;SDS011;8691;50.828;4.700;2022-12-20T10:32:13;3.47;;;1.93;;
17151;SDS011;8691;50.828;4.700;2022-12-20T10:34:39;3.40;;;1.90;;
17151;SDS011;8691;50.828;4.700;2022-12-20T10:37:11;4.10;;;1.90;;
17151;SDS011;8691;50.828;4.700;2022-12-20T10:39:41;4.30;;;2.30;;
17151;SDS011;8691;50.828;4.700;2022-12-20T10:45:03;2.90;;;1.90;;
17151;SDS011;8691;50.828;4.700;2022-12-20T10:47:42;2.95;;;2.10;;
17151;SDS011;8691;50.828;4.700;2022-12-20T10:50:19;3.97;;;2.30;;
17151;SDS011;8691;50.828;4.700;2022-12-20T10:53:01;3.15;;;2.12;;
17151;SDS011;8691;50.828;4.700;2022-12-20T10:58:00;2.50;;;1.90;;
17151;SDS011;8691;50.828;4.700;2022-12-20T11:00:28;4.00;;;2.13;;
17151;SDS011;8691;50.828;4.700;2022-12-20T11:03:04;2.70;;;2.33;;
17151;SDS011;8691;50.828;4.700;2022-12-20T11:05:29;3.33;;;2.10;;
17151;SDS011;8691;50.828;4.700;2022-12-20T11:07:57;4.43;;;1.83;;
17151;SDS011;8691;50.828;4.700;2022-12-20T11:10:24;4.80;;;2.30;;
17151;SDS011;8691;50.828;4.700;2022-12-20T11:12:53;2.77;;;2.00;;
17151;SDS011;8691;50.828;4.700;2022-12-20T11:15:28;3.57;;;1.70;;
17151;SDS011;8691;50.828;4.700;2022-12-20T11:18:14;2.97;;;1.87;;
17151;SDS011;8691;50.828;4.700;2022-12-20T11:20:43;4.13;;;1.83;;
17151;SDS011;8691;50.828;4.700;2022-12-20T11:23:16;1.93;;;1.60;;
17151;SDS011;8691;50.828;4.700;2022-12-20T11:36:48;7.10;;;2.47;;
17151;SDS011;8691;50.828;4.700;2022-12-20T11:41:54;4.70;;;1.80;;
17151;SDS011;8691;50.828;4.700;2022-12-20T11:49:56;6.27;;;2.20;;
17151;SDS011;8691;50.828;4.700;2022-12-20T11:57:41;3.43;;;2.00;;
17151;SDS011;8691;50.828;4.700;2022-12-20T12:00:05;4.00;;;2.20;;
17151;SDS011;8691;50.828;4.700;2022-12-20T12:02:44;3.57;;;2.10;;
17151;SDS011;8691;50.828;4.700;2022-12-20T12:05:20;4.43;;;2.10;;
17151;SDS011;8691;50.828;4.700;2022-12-20T12:07:56;3.10;;;2.00;;
17151;SDS011;8691;50.828;4.700;2022-12-20T12:10:22;5.20;;;2.50;;
17151;SDS011;8691;50.828;4.700;2022-12-20T12:12:52;4.05;;;2.75;;
17151;SDS011;8691;50.828;4.700;2022-12-20T12:15:25;3.67;;;2.62;;
17151;SDS011;8691;50.828;4.700;2022-12-20T12:26:23;3.13;;;2.20;;
17151;SDS011;8691;50.828;4.700;2022-12-20T12:28:45;3.77;;;2.30;;
17151;SDS011;8691;50.828;4.700;2022-12-20T12:31:13;2.97;;;2.10;;
17151;SDS011;8691;50.828;4.700;2022-12-20T12:33:50;5.23;;;2.20;;
17151;SDS011;8691;50.828;4.700;2022-12-20T12:36:15;2.37;;;1.90;;
17151;SDS011;8691;50.828;4.700;2022-12-20T12:38:47;6.43;;;2.17;;
17151;SDS011;8691;50.828;4.700;2022-12-20T12:47:10;4.27;;;2.13;;
17151;SDS011;8691;50.828;4.700;2022-12-20T12:49:32;4.30;;;1.93;;
17151;SDS011;8691;50.828;4.700;2022-12-20T12:52:00;5.95;;;3.22;;
17151;SDS011;8691;50.828;4.700;2022-12-20T12:54:27;3.73;;;2.50;;
17151;SDS011;8691;50.828;4.700;2022-12-20T12:57:12;2.73;;;2.20;;
17151;SDS011;8691;50.828;4.700;2022-12-20T13:09:58;5.50;;;2.20;;
17151;SDS011;8691;50.828;4.700;2022-12-20T13:17:47;3.63;;;2.30;;
17151;SDS011;8691;50.828;4.700;2022-12-20T13:20:16;3.90;;;2.30;;
17151;SDS011;8691;50.828;4.700;2022-12-20T13:22:41;3.60;;;2.47;;
17151;SDS011;8691;50.828;4.700;2022-12-20T13:25:43;3.33;;;2.50;;
17151;SDS011;8691;50.828;4.700;2022-12-20T13:27:54;3.20;;;2.67;;
17151;SDS011;8691;50.828;4.700;2022-12-20T13:30:24;3.20;;;1.80;;
17151;SDS011;8691;50.828;4.700;2022-12-20T13:37:53;3.37;;;2.10;;
17151;SDS011;8691;50.828;4.700;2022-12-20T13:40:20;4.13;;;2.40;;
17151;SDS011;8691;50.828;4.700;2022-12-20T13:42:45;4.13;;;2.33;;
17151;SDS011;8691;50.828;4.700;2022-12-20T13:45:12;7.70;;;2.67;;
17151;SDS011;8691;50.828;4.700;2022-12-20T13:47:41;4.77;;;2.30;;
17151;SDS011;8691;50.828;4.700;2022-12-20T13:51:07;3.33;;;2.30;;
17151;SDS011;8691;50.828;4.700;2022-12-20T13:52:48;2.73;;;2.20;;
17151;SDS011;8691;50.828;4.700;2022-12-20T13:55:31;6.57;;;2.60;;
17151;SDS011;8691;50.828;4.700;2022-12-20T13:57:56;4.63;;;2.50;;
17151;SDS011;8691;50.828;4.700;2022-12-20T14:00:24;3.27;;;2.40;;
17151;SDS011;8691;50.828;4.700;2022-12-20T14:02:52;5.50;;;2.40;;
17151;SDS011;8691;50.828;4.700;2022-12-20T14:05:20;2.60;;;2.40;;
17151;SDS011;8691;50.828;4.700;2022-12-20T14:07:58;2.93;;;2.60;;
17151;SDS011;8691;50.828;4.700;2022-12-20T14:10:28;3.17;;;2.43;;
17151;SDS011;8691;50.828;4.700;2022-12-20T14:12:53;3.33;;;2.30;;
17151;SDS011;8691;50.828;4.700;2022-12-20T14:15:29;4.40;;;2.60;;
17151;SDS011;8691;50.828;4.700;2022-12-20T14:17:53;3.97;;;2.80;;
17151;SDS011;8691;50.828;4.700;2022-12-20T14:20:25;4.03;;;2.70;;
17151;SDS011;8691;50.828;4.700;2022-12-20T14:23:03;3.90;;;2.70;;
17151;SDS011;8691;50.828;4.700;2022-12-20T14:25:42;4.88;;;3.00;;
17151;SDS011;8691;50.828;4.700;2022-12-20T14:28:33;5.22;;;3.35;;
17151;SDS011;8691;50.828;4.700;2022-12-20T14:30:57;4.53;;;2.63;;
17151;SDS011;8691;50.828;4.700;2022-12-20T14:33:36;3.40;;;2.83;;
17151;SDS011;8691;50.828;4.700;2022-12-20T14:36:09;4.43;;;2.30;;
17151;SDS011;8691;50.828;4.700;2022-12-20T14:38:43;7.00;;;2.80;;
17151;SDS011;8691;50.828;4.700;2022-12-20T14:44:12;6.90;;;2.30;;
17151;SDS011;8691;50.828;4.700;2022-12-20T14:46:33;3.47;;;2.63;;
17151;SDS011;8691;50.828;4.700;2022-12-20T14:52:03;2.87;;;2.60;;
17151;SDS011;8691;50.828;4.700;2022-12-20T14:54:21;4.60;;;3.20;;
17151;SDS011;8691;50.828;4.700;2022-12-20T14:56:47;7.05;;;3.30;;
17151;SDS011;8691;50.828;4.700;2022-12-20T14:59:14;6.33;;;3.43;;
17151;SDS011;8691;50.828;4.700;2022-12-20T15:01:40;3.73;;;2.50;;
17151;SDS011;8691;50.828;4.700;2022-12-20T15:06:47;4.85;;;3.30;;
17151;SDS011;8691;50.828;4.700;2022-12-20T15:09:15;4.63;;;3.20;;
17151;SDS011;8691;50.828;4.700;2022-12-20T15:11:42;6.20;;;3.37;;
17151;SDS011;8691;50.828;4.700;2022-12-20T15:14:21;4.73;;;3.20;;
17151;SDS011;8691;50.828;4.700;2022-12-20T15:16:47;4.68;;;3.30;;
17151;SDS011;8691;50.828;4.700;2022-12-20T15:19:14;7.70;;;3.38;;
17151;SDS011;8691;50.828;4.700;2022-12-20T15:21:41;5.97;;;3.30;;
17151;SDS011;8691;50.828;4.700;2022-12-20T15:24:10;4.07;;;3.38;;
17151;SDS011;8691;50.828;4.700;2022-12-20T15:26:35;5.65;;;3.67;;
17151;SDS011;8691;50.828;4.700;2022-12-20T15:29:02;4.25;;;3.40;;
17151;SDS011;8691;50.828;4.700;2022-12-20T15:31:29;5.25;;;3.80;;
17151;SDS011;8691;50.828;4.700;2022-12-20T15:33:56;5.60;;;3.60;;
17151;SDS011;8691;50.828;4.700;2022-12-20T15:36:24;4.77;;;2.90;;
17151;SDS011;8691;50.828;4.700;2022-12-20T15:38:50;5.00;;;3.80;;
17151;SDS011;8691;50.828;4.700;2022-12-20T15:41:23;6.20;;;4.00;;
17151;SDS011;8691;50.828;4.700;2022-12-20T15:43:50;5.38;;;3.90;;
17151;SDS011;8691;50.828;4.700;2022-12-20T15:46:16;6.32;;;3.90;;
17151;SDS011;8691;50.828;4.700;2022-12-20T15:48:43;4.22;;;3.80;;
17151;SDS011;8691;50.828;4.700;2022-12-20T15:51:15;5.43;;;3.62;;
17151;SDS011;8691;50.828;4.700;2022-12-20T15:53:37;6.17;;;3.67;;
17151;SDS011;8691;50.828;4.700;2022-12-20T15:56:04;4.60;;;3.65;;
17151;SDS011;8691;50.828;4.700;2022-12-20T15:58:31;5.30;;;3.83;;
17151;SDS011;8691;50.828;4.700;2022-12-20T16:00:59;5.77;;;3.93;;
17151;SDS011;8691;50.828;4.700;2022-12-20T16:03:27;4.87;;;4.00;;
17151;SDS011;8691;50.828;4.700;2022-12-20T16:05:52;6.50;;;4.40;;
17151;SDS011;8691;50.828;4.700;2022-12-20T16:08:19;5.27;;;4.07;;
17151;SDS011;8691;50.828;4.700;2022-12-20T16:10:46;5.60;;;4.40;;
17151;SDS011;8691;50.828;4.700;2022-12-20T16:13:13;5.78;;;4.20;;
17151;SDS011;8691;50.828;4.700;2022-12-20T16:15:40;5.90;;;4.00;;
17151;SDS011;8691;50.828;4.700;2022-12-20T16:18:08;6.30;;;4.00;;
17151;SDS011;8691;50.828;4.700;2022-12-20T16:20:35;5.30;;;3.53;;
17151;SDS011;8691;50.828;4.700;2022-12-20T16:23:02;6.35;;;4.32;;
17151;SDS011;8691;50.828;4.700;2022-12-20T16:25:33;8.00;;;4.22;;
17151;SDS011;8691;50.828;4.700;2022-12-20T16:27:59;5.80;;;4.10;;
17151;SDS011;8691;50.828;4.700;2022-12-20T16:30:26;6.37;;;4.60;;
17151;SDS011;8691;50.828;4.700;2022-12-20T16:32:53;7.70;;;4.87;;
17151;SDS011;8691;50.828;4.700;2022-12-20T16:35:24;6.55;;;5.00;;
17151;SDS011;8691;50.828;4.700;2022-12-20T16:37:55;6.27;;;4.90;;
17151;SDS011;8691;50.828;4.700;2022-12-20T16:40:23;5.70;;;4.80;;